Time;durP1;ratioP1;P1;durP2;ratioP2;P2;SDS_P1;SDS_P2;PMS_P1;PMS_P2;Temp;Humidity;BMP_temperature;BMP_pressure;BME280_temperature;BME280_humidity;BME280_pressure;Samples;Min_cycle;Max_cycle;Signal;HPM_P1;HPM_P2
2022/12/11 00:00:14;;;;;;;45.22;16.70;;;;;;;;;;4898868;29;20402;-83
2022/12/11 00:02:40;;;;;;;40.90;17.20;;;;;;;;;;4883459;29;20051;-83
2022/12/11 00:05:06;;;;;;;41.72;16.52;;;;;;;;;;4882617;29;20135;-82
2022/12/11 00:07:32;;;;;;;43.55;16.08;;;;;;;;;;4898067;29;20091;-82
2022/12/11 00:09:58;;;;;;;54.80;19.25;;;;;;;;;;4898520;29;20040;-83
2022/12/11 00:12:24;;;;;;;49.75;18.95;;;;;;;;;;4898549;29;20076;-84
2022/12/11 00:14:51;;;;;;;53.88;18.30;;;;;;;;;;4897750;29;20041;-83
2022/12/11 00:17:17;;;;;;;52.72;17.17;;;;;;;;;;4898395;29;20075;-82
2022/12/11 00:19:43;;;;;;;51.53;18.67;;;;;;;;;;4882473;29;20119;-83
2022/12/11 00:22:09;;;;;;;50.15;18.77;;;;;;;;;;4897674;29;20147;-84
2022/12/11 00:24:35;;;;;;;48.28;17.50;;;;;;;;;;4882288;29;20051;-83
2022/12/11 00:27:01;;;;;;;45.40;19.50;;;;;;;;;;4882220;29;20049;-83
2022/12/11 00:29:27;;;;;;;50.83;17.75;;;;;;;;;;4897697;29;20101;-83
2022/12/11 00:31:53;;;;;;;37.60;17.08;;;;;;;;;;4881651;29;20060;-86
2022/12/11 00:34:19;;;;;;;49.05;18.55;;;;;;;;;;4882442;29;20045;-88
2022/12/11 00:36:45;;;;;;;43.92;17.35;;;;;;;;;;4898094;29;20056;-88
2022/12/11 00:39:11;;;;;;;49.72;20.42;;;;;;;;;;4882633;29;20407;-88
2022/12/11 00:41:37;;;;;;;54.75;18.40;;;;;;;;;;4898067;29;20076;-88
2022/12/11 00:44:04;;;;;;;53.42;17.52;;;;;;;;;;4897677;29;20040;-85
2022/12/11 00:46:30;;;;;;;44.67;19.33;;;;;;;;;;4882316;29;20405;-84
2022/12/11 00:48:56;;;;;;;48.92;16.80;;;;;;;;;;4882034;29;20048;-88
2022/12/11 00:51:22;;;;;;;45.05;17.88;;;;;;;;;;4897976;29;20083;-88
2022/12/11 00:53:48;;;;;;;46.53;18.20;;;;;;;;;;4898077;29;20052;-85
2022/12/11 00:56:19;;;;;;;56.60;17.58;;;;;;;;;;4881996;29;20048;-87
2022/12/11 00:58:46;;;;;;;47.50;18.35;;;;;;;;;;4881886;29;20044;-88
2022/12/11 01:01:13;;;;;;;47.65;17.92;;;;;;;;;;4882180;29;20045;-87
2022/12/11 01:03:39;;;;;;;46.78;16.77;;;;;;;;;;4881798;29;20056;-85
2022/12/11 01:06:06;;;;;;;45.35;16.45;;;;;;;;;;4881925;29;20505;-87
2022/12/11 01:08:32;;;;;;;44.45;17.15;;;;;;;;;;4897091;29;20049;-89
2022/12/11 01:11:06;;;;;;;45.58;19.65;;;;;;;;;;4882143;29;20490;-88
2022/12/11 01:13:32;;;;;;;42.20;18.30;;;;;;;;;;4897310;29;20052;-89
2022/12/11 01:15:58;;;;;;;41.47;15.50;;;;;;;;;;4881537;29;20045;-86
2022/12/11 01:18:24;;;;;;;36.40;14.25;;;;;;;;;;4881991;29;20055;-86
2022/12/11 01:20:50;;;;;;;39.30;16.48;;;;;;;;;;4896737;29;20052;-83
2022/12/11 01:23:16;;;;;;;42.63;17.05;;;;;;;;;;4896992;29;20053;-82
2022/12/11 01:25:43;;;;;;;40.05;16.10;;;;;;;;;;4881175;29;20045;-82
2022/12/11 01:28:09;;;;;;;37.05;16.75;;;;;;;;;;4896365;29;20044;-82
2022/12/11 01:30:35;;;;;;;48.25;16.77;;;;;;;;;;4881028;29;20051;-82
2022/12/11 01:33:02;;;;;;;47.88;15.90;;;;;;;;;;4896378;29;20041;-82
2022/12/11 01:35:28;;;;;;;55.47;18.17;;;;;;;;;;4880983;29;20055;-82
2022/12/11 01:37:54;;;;;;;44.42;17.10;;;;;;;;;;4880904;29;20498;-83
2022/12/11 01:40:21;;;;;;;47.65;18.25;;;;;;;;;;4880854;29;20136;-82
2022/12/11 01:42:47;;;;;;;48.55;17.23;;;;;;;;;;4896535;29;20096;-82
2022/12/11 01:45:25;;;;;;;48.95;17.40;;;;;;;;;;4895863;29;20445;-84
2022/12/11 01:48:11;;;;;;;54.63;18.45;;;;;;;;;;4880900;29;20108;-85
2022/12/11 01:51:03;;;;;;;50.72;17.60;;;;;;;;;;4896395;29;20445;-84
2022/12/11 01:53:41;;;;;;;43.67;17.73;;;;;;;;;;4896090;29;20098;-85
2022/12/11 01:56:08;;;;;;;54.50;18.58;;;;;;;;;;4880951;29;20059;-84
2022/12/11 01:58:36;;;;;;;52.45;22.90;;;;;;;;;;4896048;29;20056;-83
2022/12/11 02:01:02;;;;;;;57.38;18.65;;;;;;;;;;4880990;29;20044;-83
2022/12/11 02:03:28;;;;;;;50.25;19.40;;;;;;;;;;4896592;29;20397;-84
2022/12/11 02:05:58;;;;;;;47.30;18.13;;;;;;;;;;4880701;29;20521;-85
2022/12/11 02:08:24;;;;;;;53.47;18.80;;;;;;;;;;4880834;29;20068;-89
2022/12/11 02:10:53;;;;;;;49.45;21.13;;;;;;;;;;4881378;29;20390;-88
2022/12/11 02:13:31;;;;;;;63.65;22.27;;;;;;;;;;4896472;29;20056;-86
2022/12/11 02:16:02;;;;;;;57.53;20.92;;;;;;;;;;4880855;29;20052;-88
2022/12/11 02:18:48;;;;;;;46.70;19.13;;;;;;;;;;4896461;29;20048;-89
2022/12/11 02:21:20;;;;;;;54.53;20.58;;;;;;;;;;4878688;29;20120;-90
2022/12/11 02:24:01;;;;;;;53.53;20.60;;;;;;;;;;4896610;29;20518;-88
2022/12/11 02:26:27;;;;;;;51.80;19.90;;;;;;;;;;4896528;29;20048;-86
2022/12/11 02:28:55;;;;;;;47.88;18.67;;;;;;;;;;4880890;29;20152;-87
2022/12/11 02:31:33;;;;;;;59.22;20.85;;;;;;;;;;4880511;29;20088;-86
2022/12/11 02:34:03;;;;;;;63.58;21.58;;;;;;;;;;4896129;29;20048;-85
2022/12/11 02:36:32;;;;;;;62.42;21.23;;;;;;;;;;4896600;29;20068;-86
2022/12/11 02:38:59;;;;;;;57.83;19.35;;;;;;;;;;4880585;29;20053;-86
2022/12/11 02:41:26;;;;;;;61.10;21.80;;;;;;;;;;4895974;29;20071;-88
2022/12/11 02:43:53;;;;;;;64.95;22.33;;;;;;;;;;4896144;29;20048;-88
2022/12/11 02:46:20;;;;;;;67.72;21.77;;;;;;;;;;4880121;29;20052;-87
2022/12/11 02:48:48;;;;;;;58.33;22.02;;;;;;;;;;4880197;29;20059;-84
2022/12/11 02:51:15;;;;;;;68.13;23.52;;;;;;;;;;4895999;29;20048;-85
2022/12/11 02:53:42;;;;;;;67.15;22.80;;;;;;;;;;4880591;29;20067;-88
2022/12/11 02:56:10;;;;;;;50.70;21.00;;;;;;;;;;4897219;29;20414;-82
2022/12/11 02:58:40;;;;;;;63.30;22.38;;;;;;;;;;4899134;29;20199;-83
2022/12/11 03:01:06;;;;;;;54.03;21.75;;;;;;;;;;4899655;29;20067;-86
2022/12/11 03:03:32;;;;;;;61.47;22.30;;;;;;;;;;4868439;29;20418;-86
2022/12/11 03:05:58;;;;;;;55.83;21.25;;;;;;;;;;4899600;29;20190;-87
2022/12/11 03:08:25;;;;;;;55.28;20.10;;;;;;;;;;4883602;29;20045;-83
2022/12/11 03:10:51;;;;;;;59.13;19.27;;;;;;;;;;4883573;29;20426;-83
2022/12/11 03:13:19;;;;;;;57.45;20.98;;;;;;;;;;4884210;29;20048;-84
2022/12/11 03:16:07;;;;;;;58.30;20.13;;;;;;;;;;4888479;29;20181;-83
2022/12/11 03:18:36;;;;;;;62.63;20.95;;;;;;;;;;4904256;29;20181;-82
2022/12/11 03:21:08;;;;;;;68.63;22.15;;;;;;;;;;4903132;29;20057;-84
2022/12/11 03:23:43;;;;;;;62.88;20.38;;;;;;;;;;4899534;29;20087;-84
2022/12/11 03:26:14;;;;;;;52.17;20.15;;;;;;;;;;4884388;29;20052;-86
2022/12/11 03:28:40;;;;;;;54.08;19.00;;;;;;;;;;4899470;29;20067;-85
2022/12/11 03:31:11;;;;;;;54.25;20.02;;;;;;;;;;4883743;29;20041;-89
2022/12/11 03:33:39;;;;;;;59.92;21.38;;;;;;;;;;4883434;29;20501;-88
2022/12/11 03:36:09;;;;;;;53.10;19.02;;;;;;;;;;4898899;29;20056;-87
2022/12/11 03:38:38;;;;;;;78.53;23.95;;;;;;;;;;4883347;29;20052;-89
2022/12/11 03:41:05;;;;;;;62.67;21.88;;;;;;;;;;4899373;29;20484;-89
2022/12/11 03:43:32;;;;;;;57.95;20.10;;;;;;;;;;4898954;29;20075;-89
2022/12/11 03:45:59;;;;;;;58.50;19.45;;;;;;;;;;4883016;29;20049;-87
2022/12/11 03:48:26;;;;;;;52.83;21.52;;;;;;;;;;4898662;29;20052;-84
2022/12/11 03:50:53;;;;;;;57.25;20.15;;;;;;;;;;4898628;29;20473;-84
2022/12/11 03:53:20;;;;;;;61.47;20.00;;;;;;;;;;4882876;29;20402;-85
2022/12/11 03:55:47;;;;;;;55.97;19.35;;;;;;;;;;4882969;29;20048;-85
2022/12/11 03:58:13;;;;;;;59.17;17.98;;;;;;;;;;4898125;29;20108;-86
2022/12/11 04:00:39;;;;;;;57.00;19.10;;;;;;;;;;4898713;29;20044;-85
2022/12/11 04:03:23;;;;;;;51.63;18.52;;;;;;;;;;4898500;29;20084;-88
2022/12/11 04:05:51;;;;;;;45.83;17.77;;;;;;;;;;4883074;29;20071;-90
2022/12/11 04:08:17;;;;;;;56.90;17.52;;;;;;;;;;4882070;29;20481;-89
2022/12/11 04:10:43;;;;;;;44.97;17.15;;;;;;;;;;4883498;29;20100;-84
2022/12/11 04:13:09;;;;;;;46.33;17.30;;;;;;;;;;4898396;29;20048;-83
2022/12/11 04:15:35;;;;;;;48.45;17.38;;;;;;;;;;4882776;29;20041;-82
2022/12/11 04:26:16;;;;;;;43.42;16.95;;;;;;;;;;4900520;29;20087;-82
2022/12/11 04:28:43;;;;;;;45.13;17.80;;;;;;;;;;4882159;29;20101;-83
2022/12/11 04:31:17;;;;;;;51.67;17.77;;;;;;;;;;4882445;29;20053;-82
2022/12/11 04:33:43;;;;;;;56.30;20.08;;;;;;;;;;4897934;29;20048;-85
2022/12/11 04:36:09;;;;;;;48.50;16.42;;;;;;;;;;4898098;29;20131;-82
2022/12/11 04:38:36;;;;;;;47.40;18.48;;;;;;;;;;4882545;29;20096;-87
2022/12/11 04:41:05;;;;;;;49.17;18.38;;;;;;;;;;4898098;29;20052;-86
2022/12/11 04:43:31;;;;;;;52.53;18.80;;;;;;;;;;4898177;29;20048;-86
2022/12/11 04:46:04;;;;;;;59.75;18.63;;;;;;;;;;4897509;29;20045;-85
2022/12/11 04:48:30;;;;;;;54.20;19.30;;;;;;;;;;4882337;29;20052;-87
2022/12/11 04:50:57;;;;;;;51.80;18.45;;;;;;;;;;4882419;29;20044;-86
2022/12/11 04:53:23;;;;;;;52.20;18.45;;;;;;;;;;4882791;29;20045;-86
2022/12/11 04:55:49;;;;;;;58.00;18.63;;;;;;;;;;4882285;29;20049;-89
2022/12/11 04:58:15;;;;;;;54.78;19.23;;;;;;;;;;4882201;29;20048;-87
2022/12/11 05:00:41;;;;;;;38.40;16.58;;;;;;;;;;4897680;29;20044;-89
2022/12/11 05:03:08;;;;;;;56.35;17.98;;;;;;;;;;4897793;29;20096;-87
2022/12/11 05:05:34;;;;;;;55.30;18.88;;;;;;;;;;4897651;29;20498;-84
2022/12/11 05:08:00;;;;;;;64.50;19.90;;;;;;;;;;4897493;29;20080;-89
2022/12/11 05:10:26;;;;;;;49.80;19.27;;;;;;;;;;4882120;29;20092;-88
2022/12/11 05:12:52;;;;;;;54.95;21.23;;;;;;;;;;4882308;29;20064;-87
2022/12/11 05:15:18;;;;;;;49.33;18.35;;;;;;;;;;4881609;29;20124;-90
2022/12/11 05:17:44;;;;;;;36.70;15.25;;;;;;;;;;4881810;29;20056;-88
2022/12/11 05:20:10;;;;;;;50.42;18.42;;;;;;;;;;4881401;29;20041;-82
2022/12/11 05:22:37;;;;;;;44.65;17.73;;;;;;;;;;4881365;29;20533;-82
2022/12/11 05:25:04;;;;;;;49.70;20.52;;;;;;;;;;4896920;29;20048;-85
2022/12/11 05:27:30;;;;;;;48.28;17.60;;;;;;;;;;4881448;29;20416;-84
2022/12/11 05:29:56;;;;;;;52.80;19.20;;;;;;;;;;4896800;29;20405;-85
2022/12/11 05:32:22;;;;;;;40.85;18.33;;;;;;;;;;4881107;29;20047;-83
2022/12/11 05:34:49;;;;;;;51.00;19.33;;;;;;;;;;4896778;29;20045;-83
2022/12/11 05:37:15;;;;;;;59.72;18.45;;;;;;;;;;4897105;29;20037;-82
2022/12/11 05:39:41;;;;;;;53.70;18.50;;;;;;;;;;4896759;29;20045;-85
2022/12/11 05:42:07;;;;;;;58.08;19.35;;;;;;;;;;4881309;29;20069;-81
2022/12/11 05:44:33;;;;;;;44.67;17.73;;;;;;;;;;4896930;29;20131;-82
2022/12/11 05:47:00;;;;;;;46.78;17.48;;;;;;;;;;4896376;29;20063;-84
2022/12/11 05:49:26;;;;;;;49.10;17.42;;;;;;;;;;4896416;29;20589;-82
2022/12/11 05:51:52;;;;;;;55.63;17.48;;;;;;;;;;4896767;29;20402;-82
2022/12/11 05:54:18;;;;;;;50.63;19.02;;;;;;;;;;4881296;29;20084;-86
2022/12/11 05:56:44;;;;;;;60.08;19.05;;;;;;;;;;4896674;29;20047;-85
2022/12/11 05:59:10;;;;;;;58.60;22.13;;;;;;;;;;4881385;29;20379;-81
2022/12/11 06:01:37;;;;;;;48.08;18.23;;;;;;;;;;4880911;29;20040;-88
2022/12/11 06:04:04;;;;;;;51.05;17.60;;;;;;;;;;4896624;29;20056;-85
2022/12/11 06:06:31;;;;;;;48.78;20.02;;;;;;;;;;4896591;29;20083;-88
2022/12/11 06:08:57;;;;;;;49.00;19.35;;;;;;;;;;4881006;29;20044;-82
2022/12/11 06:11:24;;;;;;;51.55;19.67;;;;;;;;;;4881186;29;20052;-83
2022/12/11 06:13:51;;;;;;;49.92;20.02;;;;;;;;;;4896596;29;20179;-82
2022/12/11 06:16:17;;;;;;;44.72;18.77;;;;;;;;;;4895674;29;20108;-83
2022/12/11 06:18:44;;;;;;;46.38;18.25;;;;;;;;;;4880812;29;20040;-82
2022/12/11 06:21:14;;;;;;;54.22;17.17;;;;;;;;;;4876394;29;20156;-82
2022/12/11 06:23:40;;;;;;;53.08;17.20;;;;;;;;;;4881088;29;20060;-83
2022/12/11 06:26:06;;;;;;;46.55;17.80;;;;;;;;;;4896024;29;20059;-83
2022/12/11 06:28:33;;;;;;;44.90;17.17;;;;;;;;;;4895988;29;20153;-82
2022/12/11 06:30:59;;;;;;;49.10;17.80;;;;;;;;;;4880192;29;20040;-83
2022/12/11 06:33:25;;;;;;;62.65;20.48;;;;;;;;;;4880785;29;20108;-86
2022/12/11 06:35:51;;;;;;;46.60;17.25;;;;;;;;;;4896102;29;20059;-84
2022/12/11 06:38:17;;;;;;;49.65;18.35;;;;;;;;;;4895949;29;20490;-86
2022/12/11 06:40:44;;;;;;;39.95;16.50;;;;;;;;;;4880742;29;20505;-84
2022/12/11 06:43:10;;;;;;;47.75;17.70;;;;;;;;;;4895933;29;20048;-86
2022/12/11 06:45:37;;;;;;;53.55;18.08;;;;;;;;;;4880482;29;20045;-82
2022/12/11 06:48:03;;;;;;;52.25;19.60;;;;;;;;;;4895596;29;20136;-81
2022/12/11 06:50:29;;;;;;;37.75;17.45;;;;;;;;;;4895828;29;20060;-85
2022/12/11 06:52:56;;;;;;;49.25;18.70;;;;;;;;;;4880191;29;20143;-82
2022/12/11 06:55:22;;;;;;;47.90;18.38;;;;;;;;;;4896093;29;20045;-84
2022/12/11 06:57:48;;;;;;;38.83;17.63;;;;;;;;;;4880431;29;20087;-82
2022/12/11 07:00:14;;;;;;;52.35;21.33;;;;;;;;;;4880746;29;20057;-90
2022/12/11 07:02:41;;;;;;;47.75;18.85;;;;;;;;;;4896086;29;20068;-87
2022/12/11 07:05:07;;;;;;;48.35;18.23;;;;;;;;;;4880191;29;20135;-84
2022/12/11 07:07:33;;;;;;;41.70;16.10;;;;;;;;;;4897234;29;20053;-87
2022/12/11 07:09:59;;;;;;;45.00;18.25;;;;;;;;;;4897257;29;20041;-89
2022/12/11 07:12:25;;;;;;;47.10;18.25;;;;;;;;;;4895770;29;20059;-87
2022/12/11 07:14:51;;;;;;;39.92;16.77;;;;;;;;;;4896419;29;20092;-87
2022/12/11 07:17:17;;;;;;;43.92;17.88;;;;;;;;;;4880922;29;20051;-88
2022/12/11 07:19:43;;;;;;;43.28;16.13;;;;;;;;;;4896040;29;20041;-87
2022/12/11 07:22:09;;;;;;;45.85;18.40;;;;;;;;;;4865354;29;20061;-86
2022/12/11 07:24:35;;;;;;;40.78;17.00;;;;;;;;;;4880688;29;20048;-86
2022/12/11 07:27:01;;;;;;;53.13;18.63;;;;;;;;;;4880099;29;20062;-90
2022/12/11 07:29:27;;;;;;;58.47;18.13;;;;;;;;;;4896277;29;20091;-84
2022/12/11 07:31:54;;;;;;;41.00;17.35;;;;;;;;;;4896411;29;20139;-84
2022/12/11 07:34:20;;;;;;;56.58;18.08;;;;;;;;;;4895681;29;20096;-82
2022/12/11 07:36:46;;;;;;;41.50;17.48;;;;;;;;;;4880254;29;20083;-86
2022/12/11 07:39:12;;;;;;;43.80;16.65;;;;;;;;;;4895831;29;20406;-83
2022/12/11 07:41:38;;;;;;;36.67;14.65;;;;;;;;;;4880155;29;20056;-86
2022/12/11 07:44:04;;;;;;;40.55;15.68;;;;;;;;;;4867400;29;20052;-84
2022/12/11 07:46:31;;;;;;;43.30;17.00;;;;;;;;;;4867915;29;20135;-85
2022/12/11 07:48:59;;;;;;;50.42;18.05;;;;;;;;;;4882833;29;20051;-82
2022/12/11 07:51:34;;;;;;;43.35;16.02;;;;;;;;;;4898851;29;20053;-82
2022/12/11 07:54:10;;;;;;;51.42;19.40;;;;;;;;;;4900198;29;20051;-81
2022/12/11 07:56:37;;;;;;;42.60;15.90;;;;;;;;;;4898583;29;20044;-87
2022/12/11 07:59:03;;;;;;;45.63;18.13;;;;;;;;;;4898932;29;20052;-85
2022/12/11 08:01:31;;;;;;;50.33;20.42;;;;;;;;;;4898603;29;20096;-82
2022/12/11 08:03:57;;;;;;;48.03;18.50;;;;;;;;;;4883304;29;20044;-93
2022/12/11 08:06:28;;;;;;;53.30;18.80;;;;;;;;;;4883853;29;20048;-90
2022/12/11 08:08:55;;;;;;;42.85;16.20;;;;;;;;;;4898650;29;20084;-85
2022/12/11 08:11:21;;;;;;;38.70;16.63;;;;;;;;;;4898709;29;20494;-82
2022/12/11 08:13:47;;;;;;;47.38;17.65;;;;;;;;;;4882712;29;20079;-84
2022/12/11 08:16:14;;;;;;;49.72;19.05;;;;;;;;;;4882704;29;20056;-86
2022/12/11 08:18:40;;;;;;;56.85;19.50;;;;;;;;;;4898526;29;20055;-84
2022/12/11 08:21:08;;;;;;;43.55;17.27;;;;;;;;;;4898180;29;20513;-86
2022/12/11 08:23:34;;;;;;;45.38;18.85;;;;;;;;;;4898413;29;20064;-89
2022/12/11 08:26:07;;;;;;;44.95;17.52;;;;;;;;;;4883105;29;20116;-91
2022/12/11 08:28:34;;;;;;;45.23;18.40;;;;;;;;;;4882699;29;20091;-90
2022/12/11 08:31:00;;;;;;;49.50;17.90;;;;;;;;;;4882706;29;20096;-90
2022/12/11 08:33:26;;;;;;;47.90;18.13;;;;;;;;;;4852311;29;20395;-86
2022/12/11 08:35:52;;;;;;;46.92;17.05;;;;;;;;;;4898542;29;20048;-90
2022/12/11 08:38:18;;;;;;;41.25;15.68;;;;;;;;;;4882573;29;20307;-88
2022/12/11 08:40:44;;;;;;;55.13;19.10;;;;;;;;;;4898742;29;20144;-90
2022/12/11 08:43:10;;;;;;;36.88;15.93;;;;;;;;;;4898453;29;20049;-86
2022/12/11 08:45:37;;;;;;;41.25;18.73;;;;;;;;;;4882719;29;20417;-90
2022/12/11 08:48:03;;;;;;;38.72;17.55;;;;;;;;;;4897995;29;20150;-88
2022/12/11 08:50:29;;;;;;;52.20;17.23;;;;;;;;;;4897974;29;20498;-88
2022/12/11 08:52:55;;;;;;;50.70;18.73;;;;;;;;;;4881900;29;20105;-88
2022/12/11 08:55:22;;;;;;;56.85;18.75;;;;;;;;;;4866899;29;20050;-86
2022/12/11 08:57:48;;;;;;;53.95;18.98;;;;;;;;;;4882522;29;20052;-89
2022/12/11 09:00:14;;;;;;;48.45;18.63;;;;;;;;;;4882464;29;20490;-87
2022/12/11 09:02:40;;;;;;;57.05;19.30;;;;;;;;;;4898027;29;20458;-85
2022/12/11 09:05:08;;;;;;;73.40;24.00;;;;;;;;;;4898272;29;20139;-87
2022/12/11 09:07:35;;;;;;;53.17;20.10;;;;;;;;;;4897524;29;20045;-88
2022/12/11 09:10:01;;;;;;;53.85;21.05;;;;;;;;;;4882256;29;20056;-88
2022/12/11 09:12:27;;;;;;;58.05;21.25;;;;;;;;;;4882038;29;20040;-85
2022/12/11 09:14:53;;;;;;;63.10;21.73;;;;;;;;;;4881849;29;20108;-90
2022/12/11 09:17:20;;;;;;;52.97;18.40;;;;;;;;;;4881916;29;20394;-87
2022/12/11 09:19:46;;;;;;;56.17;20.88;;;;;;;;;;4897547;29;20044;-91
2022/12/11 09:22:12;;;;;;;57.22;22.45;;;;;;;;;;4882120;29;20052;-84
2022/12/11 09:24:38;;;;;;;58.15;20.13;;;;;;;;;;4897562;29;20048;-82
2022/12/11 09:27:05;;;;;;;55.35;20.95;;;;;;;;;;4897403;29;20059;-84
2022/12/11 09:29:31;;;;;;;52.83;20.98;;;;;;;;;;4882269;29;20052;-88
2022/12/11 09:31:57;;;;;;;57.00;21.42;;;;;;;;;;4897585;29;20045;-87
2022/12/11 09:34:23;;;;;;;55.30;21.60;;;;;;;;;;4897370;29;20048;-86
2022/12/11 09:36:49;;;;;;;60.72;23.25;;;;;;;;;;4881603;29;20546;-83
2022/12/11 09:39:16;;;;;;;59.25;21.52;;;;;;;;;;4881997;29;20518;-88
2022/12/11 09:41:55;;;;;;;57.25;21.20;;;;;;;;;;4897664;29;20045;-91
2022/12/11 09:44:30;;;;;;;51.83;20.73;;;;;;;;;;4897034;29;20060;-82
2022/12/11 09:46:57;;;;;;;55.20;20.58;;;;;;;;;;4881104;29;20100;-88
2022/12/11 09:49:26;;;;;;;50.17;20.13;;;;;;;;;;4881959;29;20140;-89
2022/12/11 09:52:12;;;;;;;50.92;20.15;;;;;;;;;;4897410;29;20048;-87
2022/12/11 09:54:42;;;;;;;57.78;21.92;;;;;;;;;;4913298;29;20052;-95
2022/12/11 09:57:13;;;;;;;51.90;19.27;;;;;;;;;;4898392;29;20051;-92
2022/12/11 09:59:58;;;;;;;54.97;20.02;;;;;;;;;;4899186;29;20112;-87
2022/12/11 10:02:34;;;;;;;55.05;21.52;;;;;;;;;;4906077;29;20127;-94
2022/12/11 10:05:15;;;;;;;52.60;21.42;;;;;;;;;;4896583;29;20156;-91
2022/12/11 10:07:47;;;;;;;53.60;22.30;;;;;;;;;;4896627;29;20048;-91
2022/12/11 10:10:16;;;;;;;54.95;21.02;;;;;;;;;;4881056;29;20051;-89
2022/12/11 10:12:42;;;;;;;54.85;21.85;;;;;;;;;;4896981;29;20050;-90
2022/12/11 10:15:35;;;;;;;58.08;21.05;;;;;;;;;;4897380;29;20139;-94
2022/12/11 10:18:03;;;;;;;49.70;20.13;;;;;;;;;;4897212;29;20511;-91
2022/12/11 10:20:37;;;;;;;46.00;18.35;;;;;;;;;;4896894;29;20139;-93
2022/12/11 10:23:06;;;;;;;58.92;21.73;;;;;;;;;;4898489;29;20060;-93
2022/12/11 10:25:36;;;;;;;50.97;18.77;;;;;;;;;;4906591;29;20107;-91
2022/12/11 10:28:16;;;;;;;52.17;21.52;;;;;;;;;;4907117;29;20059;-88
2022/12/11 10:30:52;;;;;;;53.42;22.45;;;;;;;;;;4943586;23;20092;-95
2022/12/11 10:33:19;;;;;;;58.45;22.67;;;;;;;;;;5001433;28;20054;-84
2022/12/11 10:35:48;;;;;;;54.30;22.10;;;;;;;;;;5019118;28;20042;-87
2022/12/11 10:38:18;;;;;;;58.45;21.23;;;;;;;;;;5016364;28;20049;-89
2022/12/11 10:40:51;;;;;;;61.65;21.92;;;;;;;;;;5015275;28;20100;-91
2022/12/11 10:43:18;;;;;;;51.28;22.00;;;;;;;;;;4998687;28;20133;-90
2022/12/11 10:45:54;;;;;;;56.10;19.88;;;;;;;;;;4997837;28;20042;-94
2022/12/11 10:48:21;;;;;;;46.35;22.75;;;;;;;;;;4998031;28;20478;-94
2022/12/11 10:50:55;;;;;;;57.80;22.08;;;;;;;;;;5013833;28;20068;-90
2022/12/11 10:53:22;;;;;;;58.92;21.08;;;;;;;;;;5013707;28;20053;-95
2022/12/11 10:55:49;;;;;;;54.13;20.30;;;;;;;;;;4981290;28;20049;-96
2022/12/11 10:58:20;;;;;;;55.35;21.33;;;;;;;;;;4981017;28;20121;-93
2022/12/11 11:00:49;;;;;;;52.60;20.63;;;;;;;;;;4997461;28;20098;-91
2022/12/11 11:03:23;;;;;;;51.15;20.42;;;;;;;;;;4998955;28;20046;-93
2022/12/11 11:05:49;;;;;;;55.92;23.17;;;;;;;;;;5015942;28;20046;-88
2022/12/11 11:08:18;;;;;;;47.47;20.60;;;;;;;;;;4982096;28;20056;-91
2022/12/11 11:10:55;;;;;;;60.83;20.80;;;;;;;;;;4998877;28;20077;-91
2022/12/11 11:13:22;;;;;;;55.72;18.92;;;;;;;;;;5000227;28;20104;-87
2022/12/11 11:15:49;;;;;;;54.50;21.15;;;;;;;;;;5015280;28;20102;-95
2022/12/11 11:18:24;;;;;;;47.60;21.25;;;;;;;;;;5002194;28;20482;-92
2022/12/11 11:20:51;;;;;;;55.20;21.05;;;;;;;;;;5003093;28;20375;-94
2022/12/11 11:23:18;;;;;;;46.17;21.63;;;;;;;;;;5003276;28;20038;-92
2022/12/11 11:25:49;;;;;;;58.88;22.00;;;;;;;;;;5002517;28;20089;-93
2022/12/11 11:28:20;;;;;;;54.67;22.92;;;;;;;;;;5018625;28;20056;-90
2022/12/11 11:30:56;;;;;;;48.42;20.20;;;;;;;;;;5002168;28;20441;-86
2022/12/11 11:33:22;;;;;;;44.13;20.33;;;;;;;;;;5018605;28;20514;-91
2022/12/11 11:36:07;;;;;;;54.13;23.20;;;;;;;;;;5018879;28;20474;-86
2022/12/11 11:38:39;;;;;;;60.97;20.98;;;;;;;;;;5002442;28;20065;-94
2022/12/11 11:41:30;;;;;;;54.55;21.95;;;1.60;99.90;;;;;;5016226;28;20054;-92
2022/12/11 11:43:58;;;;;;;56.20;20.33;;;;;;;;;;5001902;28;20053;-90
2022/12/11 11:46:27;;;;;;;50.25;20.50;;;;;;;;;;5017591;28;20514;-90
2022/12/11 11:49:00;;;;;;;63.38;23.50;;;;;;;;;;5017143;28;20541;-83
2022/12/11 11:51:45;;;;;;;42.70;18.65;;;1.70;99.90;;;;;;5001071;28;20042;-87
2022/12/11 11:54:23;;;;;;;53.47;21.00;;;;;;;;;;5017482;28;20053;-95
2022/12/11 11:56:51;;;;;;;46.60;19.52;;;;;;;;;;5001793;28;20073;-91
2022/12/11 11:59:17;;;;;;;47.17;19.83;;;;;;;;;;5001483;28;20137;-90
2022/12/11 12:01:43;;;;;;;45.50;20.27;;;;;;;;;;5017883;28;20042;-88
2022/12/11 12:04:10;;;;;;;46.28;19.17;;;;;;;;;;5017722;28;20514;-90
2022/12/11 12:06:36;;;;;;;47.42;20.85;;;;;;;;;;5018975;28;20517;-90
2022/12/11 12:09:17;;;;;;;47.60;20.50;;;;;;;;;;5001866;28;20274;-84
2022/12/11 12:11:44;;;;;;;45.13;19.40;;;;;;;;;;5002721;28;20128;-95
2022/12/11 12:14:35;;;;;;;42.42;21.08;;;;;;;;;;5004074;28;20080;-94
2022/12/11 12:17:06;;;;;;;47.95;19.63;;;;;;;;;;5019520;28;20046;-88
2022/12/11 12:19:41;;;;;;;52.70;20.17;;;;;;;;;;5003264;28;20081;-88
2022/12/11 12:22:16;;;;;;;53.28;20.27;;;;;;;;;;5003847;28;20073;-88
2022/12/11 12:24:45;;;;;;;48.83;18.45;;;;;;;;;;5017684;28;20134;-90
2022/12/11 12:27:18;;;;;;;46.97;20.15;;;;;;;;;;5003198;28;20105;-88
2022/12/11 12:29:51;;;;;;;40.50;18.63;;;;;;;;;;5018637;28;20074;-90
2022/12/11 12:32:28;;;;;;;47.75;21.17;;;;;;;;;;5019449;28;20100;-85
2022/12/11 12:35:08;;;;;;;43.47;17.80;;;;;;;;;;5019547;28;20087;-88
2022/12/11 12:37:44;;;;;;;43.47;19.10;;;;;;;;;;5001599;28;20046;-83
2022/12/11 12:40:18;;;;;;;42.03;19.83;;;;;;;;;;5002275;28;20053;-86
2022/12/11 12:42:50;;;;;;;49.80;19.05;;;;;;;;;;5002866;28;20045;-83
2022/12/11 12:45:28;;;;;;;39.20;17.92;;;;;;;;;;5002974;28;20042;-84
2022/12/11 12:47:54;;;;;;;43.80;18.83;;;;;;;;;;5018620;28;20041;-89
2022/12/11 12:50:23;;;;;;;41.15;18.85;;;;;;;;;;5001740;28;20042;-83
2022/12/11 12:52:50;;;;;;;44.17;19.92;;;;;;;;;;5004035;28;20046;-84
2022/12/11 12:55:21;;;;;;;42.83;17.63;;;;;;;;;;4990975;28;20048;-85
2022/12/11 12:57:53;;;;;;;44.40;19.30;;;;;;;;;;5023957;28;20045;-85
2022/12/11 13:00:27;;;;;;;45.00;20.20;;;;;;;;;;5005499;28;20046;-83
2022/12/11 13:02:55;;;;;;;44.03;17.65;;;;;;;;;;5021946;28;20081;-89
2022/12/11 13:05:32;;;;;;;46.42;18.02;;;;;;;;;;5005593;28;20041;-85
2022/12/11 13:08:03;;;;;;;38.17;16.42;;;;;;;;;;5006405;28;20042;-83
2022/12/11 13:10:31;;;;;;;41.22;18.38;;;;;;;;;;5008537;28;20106;-84
2022/12/11 13:12:58;;;;;;;41.47;18.00;;;;;;;;;;5016709;28;20088;-93
2022/12/11 13:15:32;;;;;;;47.70;19.48;;;;;;;;;;4998086;28;20256;-91
2022/12/11 13:17:59;;;;;;;43.15;18.23;;;;;;;;;;5014517;28;20045;-93
2022/12/11 13:20:27;;;;;;;44.40;19.98;;;;;;;;;;5014877;28;20042;-94
2022/12/11 13:22:55;;;;;;;40.58;19.55;;;;;;;;;;5014509;28;20046;-94
2022/12/11 13:25:31;;;;;;;40.72;18.40;;;;;;;;;;4998709;28;20141;-92
2022/12/11 13:28:08;;;;;;;45.60;18.92;;;;;;;;;;4998448;28;20046;-93
2022/12/11 13:30:34;;;;;;;41.22;18.77;;;;;;;;;;4998171;28;20046;-93
2022/12/11 13:33:03;;;;;;;43.83;19.15;;;;;;;;;;4997423;28;20499;-90
2022/12/11 13:35:30;;;;;;;43.60;17.20;;;;;;;;;;4997755;28;20052;-87
2022/12/11 13:38:00;;;;;;;39.13;18.65;;;;;;;;;;4981296;28;20041;-91
2022/12/11 13:40:28;;;;;;;44.63;20.50;;;;;;;;;;4997524;28;20046;-91
2022/12/11 13:42:56;;;;;;;39.83;18.83;;;;;;;;;;4997443;28;20042;-93
2022/12/11 13:45:39;;;;;;;37.53;18.05;;;2.00;99.90;;;;;;5014792;28;20096;-93
2022/12/11 13:48:13;;;;;;;45.30;19.30;;;;;;;;;;4997340;28;20053;-87
2022/12/11 13:50:42;;;;;;;40.80;18.33;;;;;;;;;;5013604;28;20050;-89
2022/12/11 13:53:14;;;;;;;51.90;21.48;;;;;;;;;;4997364;28;20046;-90
2022/12/11 13:55:40;;;;;;;38.88;18.75;;;;;;;;;;5013152;28;20124;-85
2022/12/11 13:58:19;;;;;;;37.45;18.38;;;;;;;;;;4995650;28;20046;-87
2022/12/11 14:01:04;;;;;;;42.25;19.77;;;;;;;;;;4995727;28;20096;-84
2022/12/11 14:03:31;;;;;;;44.03;19.73;;;;;;;;;;5012213;28;20158;-90
2022/12/11 14:05:57;;;;;;;32.75;17.50;;;;;;;;;;5011990;28;20037;-87
2022/12/11 14:08:27;;;;;;;45.60;19.58;;;;;;;;;;5025458;28;20076;-86
2022/12/11 14:10:53;;;;;;;44.92;20.77;;;;;;;;;;5008342;28;20049;-89
2022/12/11 14:13:27;;;;;;;37.67;18.85;;;;;;;;;;5015634;28;20129;-85
2022/12/11 14:15:53;;;;;;;43.55;19.55;;;;;;;;;;5031540;28;20079;-89
2022/12/11 14:18:23;;;;;;;42.50;18.42;;;;;;;;;;5013031;28;20085;-84
2022/12/11 14:20:54;;;;;;;45.05;18.95;;;;;;;;;;5012684;28;20120;-85
2022/12/11 14:23:22;;;;;;;39.40;18.25;;;;;;;;;;5012129;28;20080;-84
2022/12/11 14:25:53;;;;;;;43.35;19.35;;;;;;;;;;5012193;28;20490;-84
2022/12/11 14:28:19;;;;;;;40.08;18.50;;;;;;;;;;5028935;28;20101;-84
2022/12/11 14:30:47;;;;;;;40.83;19.30;;;;;;;;;;5012992;28;20030;-85
2022/12/11 14:33:14;;;;;;;36.28;19.70;;;;;;;;;;5015172;28;20069;-89